Time;durP1;ratioP1;P1;durP2;ratioP2;P2;SDS_P1;SDS_P2;PMS_P1;PMS_P2;Temp;Humidity;BMP_temperature;BMP_pressure;BME280_temperature;BME280_humidity;BME280_pressure;Samples;Min_cycle;Max_cycle;Signal;HPM_P1;HPM_P2
2021/12/31 00:55:52;;;;;;;0.85;0.50;;;;;;;12.87;100.00;101766.50;6245223;22;20106;-83
2021/12/31 00:58:18;;;;;;;1.08;0.47;;;;;;;12.94;100.00;101755.53;6249111;23;20658;-84
2021/12/31 01:00:43;;;;;;;1.50;0.50;;;;;;;12.91;100.00;101760.09;6247580;23;20008;-84
2021/12/31 01:03:08;;;;;;;1.27;0.63;;;;;;;12.94;100.00;101762.66;6248512;23;20401;-84
2021/12/31 01:05:34;;;;;;;0.70;0.70;;;;;;;12.99;100.00;101766.91;6247808;22;20008;-84
2021/12/31 01:07:59;;;;;;;0.90;0.50;;;;;;;12.96;100.00;101759.03;6248392;23;20014;-83
2021/12/31 01:10:27;;;;;;;0.65;0.60;;;;;;;12.92;100.00;101762.72;6248641;23;20008;-83
2021/12/31 01:12:58;;;;;;;1.10;0.65;;;;;;;12.96;100.00;101776.81;6248300;23;20001;-83
2021/12/31 01:15:43;;;;;;;0.43;0.43;;;;;;;13.00;100.00;101763.31;6249424;23;20078;-83
2021/12/31 01:20:36;;;;;;;0.63;0.43;;;;;;;13.09;100.00;101765.66;6249070;23;20012;-83
2021/12/31 01:23:04;;;;;;;0.70;0.35;;;;;;;13.08;100.00;101774.56;6248668;23;20478;-83
2021/12/31 01:25:30;;;;;;;1.15;0.90;;;;;;;13.00;100.00;101763.31;6248075;23;20014;-83
2021/12/31 01:27:55;;;;;;;0.30;0.30;;;;;;;13.13;100.00;101783.28;6248928;22;20020;-83
2021/12/31 01:30:21;;;;;;;1.00;0.50;;;;;;;13.15;100.00;101777.88;6249125;23;20004;-83
2021/12/31 01:32:47;;;;;;;0.90;0.50;;;;;;;13.24;100.00;101781.06;6247303;23;20127;-83
2021/12/31 01:35:15;;;;;;;1.52;0.45;;;;;;;13.11;100.00;101773.59;6248063;23;20004;-83
2021/12/31 01:37:42;;;;;;;0.90;0.45;;;;;;;13.19;100.00;101787.53;6248878;23;20003;-84
2021/12/31 01:40:08;;;;;;;1.00;0.77;;;;;;;13.19;100.00;101791.03;6249455;23;20435;-84
2021/12/31 01:42:36;;;;;;;3.55;0.80;;;;;;;13.10;100.00;101779.84;6247594;23;20007;-84
2021/12/31 01:45:15;;;;;;;0.85;0.30;;;;;;;13.23;100.00;101776.66;6248401;23;20324;-84
2021/12/31 01:47:58;;;;;;;0.88;0.52;;;;;;;13.22;100.00;101777.56;6248762;23;20011;-83
2021/12/31 01:50:27;;;;;;;0.43;0.40;;;;;;;13.21;100.00;101777.63;6248274;23;20004;-84
2021/12/31 01:52:52;;;;;;;1.45;0.52;;;;;;;13.07;100.00;101779.97;6248181;23;20018;-83
2021/12/31 01:55:19;;;;;;;0.60;0.40;;;;;;;13.07;100.00;101775.50;6248118;23;20448;-83
2021/12/31 01:57:45;;;;;;;2.58;0.88;;;;;;;13.13;100.00;101771.72;6248457;23;20004;-84
2021/12/31 02:00:11;;;;;;;1.02;0.52;;;;;;;13.02;100.00;101777.47;6247874;23;20000;-84
2021/12/31 02:02:37;;;;;;;2.28;1.35;;;;;;;13.14;100.00;101778.81;6248870;23;20079;-84
2021/12/31 02:05:04;;;;;;;1.02;0.82;;;;;;;13.07;100.00;101777.31;6248454;23;20008;-84
2021/12/31 02:07:30;;;;;;;0.43;0.30;;;;;;;13.08;100.00;101774.56;6249161;23;20329;-84
2021/12/31 02:09:56;;;;;;;0.50;0.35;;;;;;;13.07;100.00;101770.19;6249243;23;20011;-84
2021/12/31 02:12:22;;;;;;;1.15;0.85;;;;;;;13.08;100.00;101760.41;6249133;23;20413;-84
2021/12/31 02:14:50;;;;;;;0.73;0.43;;;;;;;13.09;100.00;101772.78;6248721;23;20475;-83
2021/12/31 02:17:15;;;;;;;1.40;0.30;;;;;;;13.05;100.00;101766.69;6248334;23;20004;-84
2021/12/31 02:19:43;;;;;;;1.15;0.77;;;;;;;13.03;100.00;101762.34;6250383;23;19997;-83
2021/12/31 02:22:09;;;;;;;1.17;0.28;;;;;;;13.07;100.00;101772.84;6250614;23;20075;-83
2021/12/31 02:24:36;;;;;;;0.93;0.38;;;;;;;13.10;100.00;101774.50;6250606;23;20443;-83
2021/12/31 02:27:02;;;;;;;0.57;0.50;;;;;;;13.06;100.00;101768.41;6250052;23;20066;-84
2021/12/31 02:29:28;;;;;;;0.90;0.43;;;;;;;13.07;100.00;101775.50;6250975;23;20001;-84
2021/12/31 02:31:53;;;;;;;0.85;0.60;;;;;;;13.14;100.00;101770.81;6250286;23;20010;-84
2021/12/31 02:34:28;;;;;;;0.88;0.35;;;;;;;13.08;100.00;101773.72;6250083;23;20004;-84
2021/12/31 02:36:53;;;;;;;0.40;0.30;;;;;;;13.07;100.00;101772.84;6250374;23;20007;-83
2021/12/31 02:39:18;;;;;;;2.67;0.98;;;;;;;13.08;100.00;101779.06;6249799;23;20004;-83
2021/12/31 02:41:44;;;;;;;1.38;0.28;;;;;;;13.11;100.00;101770.94;6250072;23;20000;-83
2021/12/31 02:44:10;;;;;;;0.60;0.60;;;;;;;13.03;100.00;101781.03;6250159;23;20032;-83
2021/12/31 02:46:35;;;;;;;2.80;1.30;;;;;;;13.09;100.00;101770.13;6250145;23;20071;-84
2021/12/31 02:49:01;;;;;;;0.90;0.43;;;;;;;13.05;100.00;101779.16;6250067;23;20022;-84
2021/12/31 02:51:28;;;;;;;1.20;0.63;;;;;;;13.07;100.00;101763.97;6250025;23;20016;-83
2021/12/31 02:53:54;;;;;;;0.40;0.30;;;;;;;13.01;100.00;101770.41;6249273;23;20079;-83
2021/12/31 02:56:21;;;;;;;0.63;0.63;;;;;;;13.04;100.00;101770.31;6249220;23;20004;-84
2021/12/31 02:58:47;;;;;;;0.57;0.40;;;;;;;13.07;100.00;101769.31;6250266;23;20004;-83
2021/12/31 03:01:13;;;;;;;0.73;0.30;;;;;;;13.02;100.00;101766.81;6250250;23;20010;-84
2021/12/31 03:03:40;;;;;;;1.35;0.60;;;;;;;13.10;100.00;101771.84;6250398;23;20020;-84
2021/12/31 03:06:07;;;;;;;1.45;0.30;;;;;;;13.09;100.00;101770.13;6249987;23;20015;-84
2021/12/31 03:08:40;;;;;;;1.02;0.60;;;;;;;13.08;100.00;101776.41;6250079;23;20011;-84
2021/12/31 03:11:08;;;;;;;0.45;0.40;;;;;;;13.03;100.00;101773.03;6250402;23;20008;-84
2021/12/31 03:13:34;;;;;;;0.63;0.47;;;;;;;13.09;100.00;101767.44;6250306;23;20004;-84
2021/12/31 04:47:35;;;;;;;0.65;0.65;;;;;;;13.00;100.00;101718.00;6251684;22;20514;-83
2021/12/31 04:50:00;;;;;;;0.30;0.30;;;;;;;12.93;100.00;101710.25;6248281;23;20008;-83
2021/12/31 04:52:26;;;;;;;0.77;0.75;;;;;;;12.84;100.00;101697.28;6248682;23;20007;-83
2021/12/31 04:54:51;;;;;;;0.73;0.30;;;;;;;12.78;100.00;101694.88;6248060;23;20428;-83
2021/12/31 04:57:16;;;;;;;2.90;0.40;;;;;;;12.68;100.00;101693.47;6248473;23;20008;-83
2021/12/31 04:59:42;;;;;;;0.82;0.55;;;;;;;12.62;100.00;101680.38;6247949;23;20000;-84
2021/12/31 05:02:07;;;;;;;0.30;0.30;;;;;;;12.54;100.00;101682.47;6248192;23;20015;-84
2021/12/31 05:04:33;;;;;;;1.30;0.82;;;;;;;12.58;100.00;101684.06;6249210;23;20280;-84
2021/12/31 05:06:58;;;;;;;2.15;0.47;;;;;;;12.53;100.00;101684.25;6247561;23;20091;-83
2021/12/31 05:09:23;;;;;;;0.40;0.40;;;;;;;12.46;100.00;101677.41;6246907;23;20449;-84
2021/12/31 05:11:49;;;;;;;0.70;0.30;;;;;;;12.53;100.00;101676.25;6248305;23;20004;-84
2021/12/31 05:14:14;;;;;;;0.70;0.60;;;;;;;12.39;100.00;101678.56;6247850;23;20070;-84
2021/12/31 05:16:40;;;;;;;0.98;0.68;;;;;;;12.38;100.00;101685.66;6248221;23;20421;-86
2021/12/31 05:19:06;;;;;;;0.50;0.47;;;;;;;12.40;100.00;101679.44;6248840;23;20000;-83
2021/12/31 05:21:31;;;;;;;0.82;0.55;;;;;;;12.38;100.00;101686.59;6247929;23;20011;-85
2021/12/31 05:23:57;;;;;;;2.03;0.50;;;;;;;12.38;100.00;101678.63;6247935;23;20008;-83
2021/12/31 05:26:23;;;;;;;0.90;0.73;;;;;;;12.40;100.00;101695.41;6248232;23;20000;-87
2021/12/31 05:28:48;;;;;;;0.85;0.40;;;;;;;12.43;100.00;101698.84;6247393;23;20008;-87
2021/12/31 05:31:15;;;;;;;0.80;0.40;;;;;;;12.44;100.00;101700.56;6248320;23;20071;-86
2021/12/31 05:33:40;;;;;;;1.45;0.55;;;;;;;12.40;100.00;101690.09;6249062;22;20008;-86
2021/12/31 05:36:06;;;;;;;0.98;0.50;;;;;;;12.38;100.00;101702.59;6248200;23;20007;-86
2021/12/31 05:38:31;;;;;;;0.57;0.50;;;;;;;12.31;100.00;101702.81;6246454;23;20004;-87
2021/12/31 05:40:56;;;;;;;5.10;1.40;;;;;;;12.31;100.00;101692.16;6246959;23;20095;-86
2021/12/31 05:43:22;;;;;;;1.30;0.47;;;;;;;12.20;100.00;101689.00;6247989;23;20012;-86
2021/12/31 05:45:47;;;;;;;0.55;0.30;;;;;;;12.24;100.00;101695.97;6248356;23;20004;-88
2021/12/31 05:48:12;;;;;;;0.60;0.50;;;;;;;12.32;100.00;101695.72;6245259;23;20020;-85
2021/12/31 05:50:38;;;;;;;1.73;1.48;;;;;;;12.24;100.00;101693.28;6247216;23;20004;-83
2021/12/31 05:53:03;;;;;;;0.85;0.75;;;;;;;12.30;100.00;101695.75;6246720;23;20090;-86
2021/12/31 05:55:28;;;;;;;0.57;0.40;;;;;;;12.19;100.00;101697.94;6246998;23;20008;-82
2021/12/31 05:58:01;;;;;;;3.50;0.50;;;;;;;12.25;100.00;101699.50;6246627;23;20005;-81
2021/12/31 06:00:29;;;;;;;1.02;0.40;;;;;;;12.19;100.00;101692.63;6249073;23;20035;-89
2021/12/31 06:02:55;;;;;;;0.57;0.47;;;;;;;12.23;100.00;101704.00;6246728;23;20008;-82
2021/12/31 06:05:23;;;;;;;1.42;0.98;;;;;;;12.09;100.00;101699.19;6246887;23;20424;-82
2021/12/31 06:07:49;;;;;;;0.70;0.43;;;;;;;12.13;100.00;101718.59;6246177;23;20020;-82
2021/12/31 06:10:14;;;;;;;0.40;0.30;;;;;;;12.16;100.00;101719.31;6245220;23;20000;-84
2021/12/31 06:12:41;;;;;;;0.65;0.30;;;;;;;12.10;100.00;101708.91;6246617;23;20011;-87
2021/12/31 06:15:09;;;;;;;0.65;0.35;;;;;;;12.05;100.00;101694.88;6246166;23;20035;-83
2021/12/31 06:17:34;;;;;;;1.55;1.30;;;;;;;12.10;100.00;101682.25;6247745;23;20026;-85
2021/12/31 06:20:00;;;;;;;1.10;0.60;;;;;;;12.03;100.00;101674.56;6247562;23;20000;-88
2021/12/31 06:22:25;;;;;;;0.35;0.32;;;;;;;12.00;100.00;101680.88;6247177;23;19997;-88
2021/12/31 06:24:52;;;;;;;2.22;0.60;;;;;;;12.01;100.00;101682.59;6247712;23;20008;-88
2021/12/31 06:27:18;;;;;;;0.40;0.40;;;;;;;12.04;100.00;101682.50;6248744;23;20050;-89
2021/12/31 06:29:43;;;;;;;2.25;0.75;;;;;;;11.99;100.00;101660.47;6248021;23;19996;-90
2021/12/31 06:32:09;;;;;;;2.20;0.40;;;;;;;11.92;100.00;101661.63;6248631;23;20004;-85
2021/12/31 06:34:34;;;;;;;1.83;0.93;;;;;;;11.86;100.00;101658.31;6248391;23;20003;-86
2021/12/31 06:37:00;;;;;;;0.70;0.40;;;;;;;11.88;100.00;101664.47;6247613;23;20046;-86
2021/12/31 06:39:26;;;;;;;0.63;0.40;;;;;;;11.89;100.00;101643.13;6248371;23;20122;-87
2021/12/31 06:41:52;;;;;;;1.23;0.50;;;;;;;11.77;100.00;101646.19;6247409;23;19997;-86
2021/12/31 06:44:18;;;;;;;0.50;0.43;;;;;;;11.74;100.00;101646.28;6248031;23;20381;-85
2021/12/31 06:46:43;;;;;;;1.05;0.57;;;;;;;11.81;100.00;101647.84;6219844;23;20047;-88
2021/12/31 06:49:08;;;;;;;0.88;0.60;;;;;;;11.81;100.00;101649.63;6248067;23;20420;-85
2021/12/31 06:51:34;;;;;;;0.30;0.20;;;;;;;11.72;100.00;101650.78;6246623;23;20004;-85
2021/12/31 06:53:59;;;;;;;0.50;0.32;;;;;;;11.67;100.00;101647.44;6247820;23;20008;-86
2021/12/31 06:56:25;;;;;;;0.40;0.40;;;;;;;11.63;100.00;101650.28;6246181;23;20012;-84
2021/12/31 06:58:50;;;;;;;0.30;0.30;;;;;;;11.70;100.00;101657.09;6246640;23;20015;-86
2021/12/31 07:01:16;;;;;;;1.60;0.80;;;;;;;11.66;100.00;101656.31;6247670;23;20008;-85
2021/12/31 07:03:41;;;;;;;0.88;0.77;;;;;;;11.68;100.00;101662.47;6247856;23;20011;-85
2021/12/31 07:06:06;;;;;;;1.15;0.63;;;;;;;11.69;100.00;101661.53;6249762;23;20008;-84
2021/12/31 07:08:31;;;;;;;0.52;0.52;;;;;;;11.73;100.00;101671.19;6249066;23;20087;-86
2021/12/31 07:10:58;;;;;;;1.02;0.50;;;;;;;11.75;100.00;101680.00;6249706;23;20004;-86
2021/12/31 07:13:26;;;;;;;1.27;0.35;;;;;;;11.82;100.00;101676.19;6251255;23;20004;-87
2021/12/31 07:15:52;;;;;;;1.85;0.70;;;;;;;11.77;100.00;101699.41;6252183;23;20011;-88
2021/12/31 07:18:19;;;;;;;0.40;0.40;;;;;;;11.85;100.00;101699.19;6249785;23;20004;-88
2021/12/31 07:20:45;;;;;;;1.23;0.60;;;;;;;11.84;100.00;101694.75;6249272;23;20008;-83
2021/12/31 07:23:12;;;;;;;0.93;0.90;;;;;;;11.88;100.00;101699.91;6250015;23;20038;-85
2021/12/31 07:25:39;;;;;;;0.63;0.40;;;;;;;11.88;100.00;101697.25;6249515;23;20012;-86
2021/12/31 07:28:05;;;;;;;0.43;0.38;;;;;;;11.81;100.00;101711.72;6249088;23;20004;-84
2021/12/31 07:30:31;;;;;;;1.20;0.57;;;;;;;11.76;100.00;101694.16;6221945;23;20320;-84
2021/12/31 07:32:56;;;;;;;1.88;0.65;;;;;;;11.83;100.00;101699.19;6248132;23;20008;-88
2021/12/31 07:35:23;;;;;;;1.60;0.80;;;;;;;11.80;100.00;101712.63;6248571;23;20056;-82
2021/12/31 07:37:49;;;;;;;0.68;0.52;;;;;;;11.72;100.00;101693.38;6248836;23;20008;-84
2021/12/31 07:40:24;;;;;;;0.73;0.68;;;;;;;11.77;100.00;101685.25;6249287;23;20100;-84
2021/12/31 07:42:56;;;;;;;0.52;0.40;;;;;;;11.81;100.00;101685.09;6248508;23;20008;-84
2021/12/31 07:45:21;;;;;;;1.17;0.30;;;;;;;11.81;100.00;101677.09;6248155;23;20008;-85
2021/12/31 07:47:46;;;;;;;0.30;0.30;;;;;;;11.89;100.00;101661.75;6248095;23;20046;-85
2021/12/31 07:50:15;;;;;;;1.08;0.88;;;;;;;11.82;100.00;101672.63;6248541;23;20004;-85
2021/12/31 07:52:41;;;;;;;2.70;0.50;;;;;;;11.83;100.00;101680.56;6249253;23;20008;-85
2021/12/31 07:55:06;;;;;;;0.40;0.38;;;;;;;11.85;100.00;101669.91;6247821;23;20079;-85
2021/12/31 07:57:31;;;;;;;0.55;0.45;;;;;;;11.84;100.00;101678.78;6249023;23;20010;-83
2021/12/31 07:59:57;;;;;;;0.77;0.57;;;;;;;11.75;100.00;101676.44;6247708;23;20004;-86
2021/12/31 08:02:22;;;;;;;3.20;0.45;;;;;;;11.79;100.00;101678.94;6248762;23;20008;-86
2021/12/31 08:04:47;;;;;;;0.75;0.50;;;;;;;11.82;100.00;101672.63;6248858;23;20008;-85
2021/12/31 08:07:13;;;;;;;1.48;1.13;;;;;;;11.81;100.00;101684.22;6248421;23;20015;-86
2021/12/31 08:09:38;;;;;;;1.02;0.82;;;;;;;11.82;100.00;101689.47;6248954;23;20000;-86
2021/12/31 08:12:04;;;;;;;0.50;0.50;;;;;;;11.80;100.00;101699.31;6247614;23;20377;-86
2021/12/31 08:14:31;;;;;;;0.73;0.40;;;;;;;11.86;100.00;101700.91;6248249;23;20016;-85
2021/12/31 08:16:56;;;;;;;6.18;0.68;;;;;;;11.80;100.00;101704.63;6248455;23;20042;-85
2021/12/31 08:19:21;;;;;;;0.85;0.52;;;;;;;11.79;100.00;101702.91;6249042;23;20004;-84
2021/12/31 08:21:47;;;;;;;0.73;0.50;;;;;;;11.84;100.00;101702.75;6248956;23;20077;-85
2021/12/31 08:24:12;;;;;;;2.10;1.60;;;;;;;11.92;100.00;101701.56;6248423;23;20007;-86
2021/12/31 08:26:38;;;;;;;0.40;0.30;;;;;;;11.93;100.00;101699.75;6248406;23;20004;-85
2021/12/31 08:29:05;;;;;;;1.88;0.40;;;;;;;11.89;100.00;101688.38;6248085;23;20347;-85
2021/12/31 08:32:03;;;;;;;0.95;0.45;;;;;;;11.94;100.00;101689.03;6248094;23;20079;-85
2021/12/31 08:34:56;;;;;;;0.47;0.40;;;;;;;11.97;100.00;101688.09;6248590;23;20004;-85
2021/12/31 08:37:38;;;;;;;0.65;0.55;;;;;;;11.94;100.00;101701.50;6247675;23;20334;-85
2021/12/31 08:40:05;;;;;;;1.98;0.32;;;;;;;11.96;100.00;101694.34;6247673;23;20031;-85
2021/12/31 08:42:30;;;;;;;0.70;0.40;;;;;;;12.00;100.00;101691.53;6248189;23;20477;-85
2021/12/31 08:44:56;;;;;;;0.20;0.20;;;;;;;11.98;100.00;101690.69;6248621;23;20004;-85
2021/12/31 08:47:21;;;;;;;1.30;0.45;;;;;;;11.95;100.00;101693.47;6248065;23;20016;-86
2021/12/31 08:49:47;;;;;;;0.75;0.40;;;;;;;12.01;100.00;101698.56;6247846;23;20054;-84
2021/12/31 08:52:12;;;;;;;0.93;0.38;;;;;;;12.06;100.00;101707.28;6248275;23;20046;-85
2021/12/31 08:54:39;;;;;;;0.40;0.40;;;;;;;12.03;100.00;101695.84;6248484;23;20043;-84
2021/12/31 08:57:04;;;;;;;0.40;0.40;;;;;;;12.01;100.00;101690.59;6249927;23;20435;-94
2021/12/31 08:59:30;;;;;;;0.20;0.20;;;;;;;12.05;100.00;101696.69;6249703;23;19988;-92
2021/12/31 09:01:55;;;;;;;1.55;0.38;;;;;;;12.03;100.00;101683.44;6249082;23;20000;-91
2021/12/31 09:04:20;;;;;;;5.07;0.50;;;;;;;12.01;100.00;101706.56;6248304;23;20031;-91
2021/12/31 09:06:46;;;;;;;1.10;0.85;;;;;;;12.07;100.00;101693.03;6248366;23;20020;-91
2021/12/31 09:09:11;;;;;;;2.08;0.52;;;;;;;12.06;100.00;101691.31;6249060;23;20031;-93
2021/12/31 09:11:37;;;;;;;0.85;0.60;;;;;;;12.24;100.00;101692.44;6249018;23;20000;-91
2021/12/31 09:14:02;;;;;;;0.57;0.57;;;;;;;12.23;100.00;101696.00;6248971;23;20015;-92
2021/12/31 09:16:29;;;;;;;0.73;0.40;;;;;;;12.10;100.00;101708.91;6248780;23;20011;-93
2021/12/31 09:18:54;;;;;;;0.20;0.20;;;;;;;12.11;100.00;101723.97;6249023;23;20000;-92
2021/12/31 09:21:25;;;;;;;0.30;0.30;;;;;;;12.11;100.00;101709.78;6252540;22;20004;-92
2021/12/31 09:23:51;;;;;;;0.43;0.43;;;;;;;12.07;100.00;101724.13;6249603;23;20027;-91
2021/12/31 09:26:16;;;;;;;0.60;0.40;;;;;;;12.02;100.00;101744.72;6249503;23;20011;-87
2021/12/31 09:28:49;;;;;;;0.95;0.55;;;;;;;12.15;100.00;101730.91;6252647;23;20797;-92
2021/12/31 09:31:44;;;;;;;0.77;0.40;;;;;;;12.04;100.00;101727.75;6255257;23;20000;-91
2021/12/31 09:34:09;;;;;;;0.77;0.47;;;;;;;12.01;100.00;101722.53;6260742;23;20031;-92
2021/12/31 09:36:35;;;;;;;0.43;0.32;;;;;;;12.04;100.00;101735.75;6264218;23;20007;-91
2021/12/31 09:39:00;;;;;;;0.35;0.30;;;;;;;12.09;100.00;101708.94;6253787;23;20118;-91
2021/12/31 09:41:32;;;;;;;0.85;0.40;;;;;;;12.07;100.00;101714.34;6248444;23;20027;-93
2021/12/31 09:44:15;;;;;;;0.95;0.70;;;;;;;12.07;100.00;101751.63;6248390;23;20003;-90
2021/12/31 09:47:30;;;;;;;0.68;0.43;;;;;;;12.06;100.00;101760.53;6248784;22;20097;-90
2021/12/31 09:50:21;;;;;;;1.10;0.80;;;;;;;12.01;100.00;101746.50;6247129;23;20016;-90
2021/12/31 09:52:46;;;;;;;1.65;0.95;;;;;;;12.01;100.00;101740.28;6247929;23;20115;-91
2021/12/31 09:55:12;;;;;;;0.52;0.52;;;;;;;11.97;100.00;101755.53;6246194;23;20010;-89
2021/12/31 10:10:25;;;;;;;0.65;0.45;;;;;;;12.09;100.00;101747.13;6248793;23;20022;-91
2021/12/31 10:12:56;;;;;;;1.10;0.82;;;;;;;12.06;100.00;101764.97;6250517;23;20015;-90
2021/12/31 10:15:24;;;;;;;1.05;0.50;;;;;;;12.02;100.00;101774.00;6251345;23;20000;-90
2021/12/31 10:17:50;;;;;;;0.95;0.75;;;;;;;12.05;100.00;101773.91;6251752;23;20008;-90
2021/12/31 10:20:18;;;;;;;1.13;0.50;;;;;;;12.04;100.00;101767.69;6252001;23;20008;-92
2021/12/31 10:22:46;;;;;;;0.77;0.50;;;;;;;12.08;100.00;101747.16;6247931;23;20020;-91
2021/12/31 10:25:17;;;;;;;1.05;0.60;;;;;;;12.10;100.00;101730.19;6248019;23;20028;-88
2021/12/31 10:27:45;;;;;;;1.48;0.60;;;;;;;12.11;100.00;101736.41;6248252;23;20031;-90
2021/12/31 10:33:46;;;;;;;2.65;0.82;;;;;;;12.23;100.00;101678.25;6247331;23;20043;-90
2021/12/31 10:36:37;;;;;;;1.65;0.82;;;;;;;12.17;100.00;101656.28;6249309;23;20011;-91
2021/12/31 10:39:22;;;;;;;1.73;0.88;;;;;;;12.28;100.00;101632.81;6249246;23;20004;-91
2021/12/31 10:42:19;;;;;;;1.42;0.82;;;;;;;12.48;100.00;101651.56;6249300;23;19996;-85
2021/12/31 10:48:46;;;;;;;1.00;0.65;;;;;;;12.71;100.00;101674.69;6251315;23;20031;-90
2021/12/31 10:51:51;;;;;;;2.97;1.10;;;;;;;12.78;100.00;101690.38;6250056;23;20033;-89
2021/12/31 10:54:33;;;;;;;0.32;0.30;;;;;;;12.71;100.00;101696.00;6156620;23;20077;-89
2021/12/31 10:57:46;;;;;;;0.40;0.30;;;;;;;12.71;100.00;101694.22;6148435;23;19994;-89
2021/12/31 11:00:14;;;;;;;3.83;0.98;;;;;;;12.60;100.00;101695.53;6158744;23;20152;-88
2021/12/31 11:02:54;;;;;;;1.25;1.15;;;;;;;12.72;100.00;101692.41;6158765;23;20010;-90
2021/12/31 11:12:01;;;;;;;0.55;0.40;;;;;;;12.84;100.00;101690.19;6219741;23;20014;-91
2021/12/31 11:14:27;;;;;;;1.10;0.52;;;;;;;12.78;100.00;101697.53;6219822;23;20019;-87
2021/12/31 11:20:24;;;;;;;1.80;0.60;;;;;;;12.55;100.00;101705.50;6218863;23;20120;-91
2021/12/31 11:22:51;;;;;;;4.28;0.80;;;;;;;12.47;100.00;101708.47;6219601;23;20009;-88
2021/12/31 11:25:36;;;;;;;0.52;0.40;;;;;;;12.38;100.00;101704.31;6220685;23;20024;-91
2021/12/31 11:28:42;;;;;;;0.90;0.60;;;;;;;12.41;100.00;101702.47;6221998;23;20015;-90
2021/12/31 11:31:29;;;;;;;0.70;0.60;;;;;;;12.46;100.00;101713.84;6235718;22;20016;-91
2021/12/31 11:34:27;;;;;;;0.40;0.40;;;;;;;12.43;100.00;101717.50;6256677;23;20067;-90
2021/12/31 11:37:08;;;;;;;1.65;0.60;;;;;;;12.42;100.00;101725.56;6257591;23;20010;-91
2021/12/31 11:39:41;;;;;;;0.30;0.25;;;;;;;12.41;100.00;101713.13;6253607;23;20004;-91
2021/12/31 11:42:59;;;;;;;1.08;0.50;;;;;;;12.33;100.00;101710.75;6252051;23;20019;-90
2021/12/31 11:45:25;;;;;;;1.30;0.90;;;;;;;12.47;100.00;101694.25;6250876;22;20012;-91
2021/12/31 11:47:54;;;;;;;0.80;0.40;;;;;;;12.69;100.00;101717.41;6249081;22;20019;-91
